Time;durP1;ratioP1;P1;durP2;ratioP2;P2;SDS_P1;SDS_P2;PMS_P1;PMS_P2;Temp;Humidity;BMP_temperature;BMP_pressure;BME280_temperature;BME280_humidity;BME280_pressure;Samples;Min_cycle;Max_cycle;Signal;HPM_P1;HPM_P2
2021/09/02 00:00:31;;;;;;;14.75;13.45;;;11.40;82.50;;;;;;4954309;29;20076;-69
2021/09/02 00:03:03;;;;;;;14.82;13.60;;;11.40;82.30;;;;;;4952870;29;20122;-69
2021/09/02 00:05:35;;;;;;;15.30;13.85;;;11.40;82.10;;;;;;4953558;29;20050;-68
2021/09/02 00:08:07;;;;;;;15.18;13.88;;;11.40;82.30;;;;;;4959457;29;20061;-70
2021/09/02 00:10:39;;;;;;;15.10;13.70;;;11.30;83.00;;;;;;4954798;29;20144;-69
2021/09/02 00:13:12;;;;;;;15.60;14.30;;;11.30;83.00;;;;;;4938185;29;20438;-71
2021/09/02 00:15:44;;;;;;;14.85;13.65;;;11.20;82.70;;;;;;4949035;29;20145;-71
2021/09/02 00:18:16;;;;;;;15.88;14.25;;;11.10;82.60;;;;;;4953173;29;20502;-70
2021/09/02 00:20:48;;;;;;;15.68;14.38;;;11.10;82.50;;;;;;4952926;29;20132;-70
2021/09/02 00:23:20;;;;;;;15.30;14.00;;;11.10;82.10;;;;;;4950222;29;20537;-70
2021/09/02 00:25:51;;;;;;;14.50;13.35;;;11.00;82.20;;;;;;4953611;29;20446;-70
2021/09/02 00:28:24;;;;;;;14.60;13.40;;;11.00;83.00;;;;;;4948165;29;20058;-69
2021/09/02 00:30:55;;;;;;;15.18;13.75;;;11.00;82.10;;;;;;4950850;29;20145;-70
2021/09/02 00:33:27;;;;;;;15.65;13.73;;;11.00;82.20;;;;;;4951584;29;20088;-70
2021/09/02 00:35:59;;;;;;;15.25;14.05;;;11.00;81.90;;;;;;4953213;29;20146;-70
2021/09/02 00:38:35;;;;;;;14.82;13.55;;;11.00;82.00;;;;;;4952157;29;20051;-70
2021/09/02 00:41:07;;;;;;;15.80;14.50;;;11.00;82.50;;;;;;4952535;29;20111;-69
2021/09/02 00:43:42;;;;;;;15.02;13.73;;;10.90;82.50;;;;;;4953083;29;20051;-69
2021/09/02 00:46:16;;;;;;;15.02;13.82;;;10.90;82.90;;;;;;4953389;29;20043;-69
2021/09/02 00:48:49;;;;;;;14.98;13.68;;;10.80;82.50;;;;;;4952421;29;20535;-70
2021/09/02 00:51:21;;;;;;;16.77;14.10;;;10.80;82.60;;;;;;4951775;29;20154;-69
2021/09/02 00:53:56;;;;;;;14.73;13.52;;;10.80;82.90;;;;;;4958753;29;20125;-69
2021/09/02 00:56:28;;;;;;;15.43;14.13;;;10.90;83.00;;;;;;4958571;29;20055;-69
2021/09/02 00:59:00;;;;;;;15.75;14.45;;;10.90;87.10;;;;;;4952771;29;20054;-69
2021/09/02 01:01:32;;;;;;;15.90;14.48;;;10.80;85.50;;;;;;4950664;29;20142;-69
2021/09/02 01:04:04;;;;;;;15.18;13.98;;;10.80;85.90;;;;;;4952178;29;20050;-69
2021/09/02 01:06:38;;;;;;;15.40;14.10;;;10.80;84.70;;;;;;4950659;29;20050;-70
2021/09/02 01:09:12;;;;;;;15.43;14.20;;;10.80;84.60;;;;;;4955019;29;20086;-70
2021/09/02 01:11:54;;;;;;;15.52;14.32;;;10.80;84.70;;;;;;4951049;29;20517;-69
2021/09/02 01:14:26;;;;;;;15.38;14.18;;;10.80;84.60;;;;;;4949493;29;20058;-70
2021/09/02 01:16:58;;;;;;;15.65;14.35;;;10.70;84.90;;;;;;4952781;29;20055;-72
2021/09/02 01:19:29;;;;;;;15.63;14.38;;;10.60;86.00;;;;;;4949923;29;20050;-71
2021/09/02 01:22:03;;;;;;;15.63;14.40;;;10.60;85.40;;;;;;4952254;29;20051;-70
2021/09/02 01:24:35;;;;;;;15.70;14.40;;;10.60;85.20;;;;;;4950464;29;20053;-70
2021/09/02 01:27:07;;;;;;;15.68;14.40;;;10.60;84.90;;;;;;4950865;29;20480;-69
2021/09/02 01:29:39;;;;;;;15.18;13.98;;;10.60;84.70;;;;;;4949804;29;20043;-69
2021/09/02 01:32:11;;;;;;;15.55;14.32;;;10.60;84.40;;;;;;4949855;29;20138;-71
2021/09/02 01:34:43;;;;;;;15.57;14.27;;;10.70;84.80;;;;;;4950597;29;20130;-71
2021/09/02 01:37:15;;;;;;;15.40;14.20;;;10.60;85.40;;;;;;4949039;29;20047;-69
2021/09/02 01:39:48;;;;;;;16.55;14.95;;;10.50;85.20;;;;;;4948755;29;20528;-70
2021/09/02 01:42:20;;;;;;;16.65;15.32;;;10.50;85.70;;;;;;4948008;29;20673;-69
2021/09/02 01:44:53;;;;;;;15.93;14.60;;;10.50;85.40;;;;;;4952673;29;20711;-69
2021/09/02 01:47:27;;;;;;;16.05;14.70;;;10.50;84.90;;;;;;4948873;29;20170;-69
2021/09/02 01:50:11;;;;;;;16.15;14.85;;;10.50;85.20;;;;;;4951021;29;20047;-69
2021/09/02 01:52:44;;;;;;;15.65;14.45;;;10.50;85.10;;;;;;4949941;29;20108;-70
2021/09/02 01:55:16;;;;;;;15.65;14.13;;;10.50;84.50;;;;;;4948970;29;20142;-69
2021/09/02 01:57:49;;;;;;;15.82;14.52;;;10.40;84.90;;;;;;4951444;29;20131;-69
2021/09/02 02:00:22;;;;;;;15.77;14.57;;;10.40;84.70;;;;;;4967069;29;20137;-69
2021/09/02 02:02:54;;;;;;;15.35;13.88;;;10.50;84.30;;;;;;4950361;29;20058;-69
2021/09/02 02:05:26;;;;;;;15.05;13.80;;;10.50;84.80;;;;;;4949380;29;20058;-70
2021/09/02 02:07:59;;;;;;;15.00;13.80;;;10.50;84.20;;;;;;4949629;29;20562;-70
2021/09/02 02:10:31;;;;;;;15.85;14.55;;;10.60;84.30;;;;;;4949527;29;20138;-70
2021/09/02 02:13:03;;;;;;;15.05;13.75;;;10.50;84.50;;;;;;4949678;29;20462;-71
2021/09/02 02:15:35;;;;;;;15.93;14.50;;;10.50;84.20;;;;;;4946856;29;20104;-72
2021/09/02 02:18:08;;;;;;;15.52;14.23;;;10.50;84.40;;;;;;4952505;29;20139;-70
2021/09/02 02:20:40;;;;;;;14.30;13.20;;;10.40;84.40;;;;;;4951896;29;20719;-70
2021/09/02 02:23:11;;;;;;;15.13;13.80;;;10.50;84.20;;;;;;4949299;29;20050;-71
2021/09/02 02:25:44;;;;;;;14.73;13.60;;;10.40;84.80;;;;;;4952438;29;20116;-71
2021/09/02 02:28:16;;;;;;;14.45;13.25;;;10.40;84.10;;;;;;4951749;29;20058;-72
2021/09/02 02:30:48;;;;;;;14.85;13.50;;;10.40;84.00;;;;;;4950609;29;20046;-72
2021/09/02 02:33:20;;;;;;;15.88;14.45;;;10.40;83.60;;;;;;4950301;29;20212;-69
2021/09/02 02:35:53;;;;;;;15.18;13.98;;;10.40;83.80;;;;;;4950568;29;20146;-69
2021/09/02 02:38:25;;;;;;;14.20;13.10;;;10.40;83.50;;;;;;4935815;29;20051;-69
2021/09/02 02:40:57;;;;;;;14.45;13.35;;;10.40;83.30;;;;;;4960792;29;20801;-69
2021/09/02 02:43:29;;;;;;;14.50;13.30;;;10.40;83.50;;;;;;4953052;29;20039;-70
2021/09/02 02:46:01;;;;;;;14.23;13.13;;;10.40;83.10;;;;;;4952611;29;20601;-71
2021/09/02 02:48:33;;;;;;;14.15;12.95;;;10.40;83.20;;;;;;4954662;29;20051;-70
2021/09/02 02:51:05;;;;;;;15.00;13.80;;;10.40;83.10;;;;;;4953156;29;20132;-70
2021/09/02 02:53:37;;;;;;;15.48;14.05;;;10.40;83.50;;;;;;4953053;29;20138;-69
2021/09/02 02:56:09;;;;;;;15.27;14.07;;;10.30;83.10;;;;;;4949606;29;20151;-70
2021/09/02 02:58:42;;;;;;;14.85;13.52;;;10.30;82.90;;;;;;4953876;29;20058;-71
2021/09/02 03:01:14;;;;;;;14.65;13.43;;;10.30;82.60;;;;;;4950397;29;20059;-69
2021/09/02 03:03:47;;;;;;;14.57;13.38;;;10.40;82.50;;;;;;4967853;29;20075;-70
2021/09/02 03:06:18;;;;;;;14.77;13.40;;;10.30;82.30;;;;;;4954112;29;20162;-69
2021/09/02 03:08:50;;;;;;;14.30;13.10;;;10.30;82.50;;;;;;4953280;29;20075;-69
2021/09/02 03:11:22;;;;;;;15.05;13.73;;;10.20;82.50;;;;;;4952143;29;20058;-70
2021/09/02 03:13:54;;;;;;;14.90;13.57;;;10.20;82.50;;;;;;4952906;29;20055;-69
2021/09/02 03:16:26;;;;;;;14.18;12.88;;;10.10;83.40;;;;;;4950973;29;20100;-70
2021/09/02 03:18:58;;;;;;;14.90;13.70;;;10.10;83.60;;;;;;4952537;29;20050;-70
2021/09/02 03:21:30;;;;;;;14.57;13.38;;;10.10;83.50;;;;;;4952049;29;20165;-72
2021/09/02 03:24:02;;;;;;;14.13;12.93;;;10.10;82.80;;;;;;4953813;29;20151;-71
2021/09/02 03:26:34;;;;;;;14.35;13.05;;;10.00;82.50;;;;;;4952958;29;20051;-70
2021/09/02 03:29:06;;;;;;;14.93;13.52;;;10.10;82.50;;;;;;4951191;29;20055;-70
2021/09/02 03:31:38;;;;;;;15.07;13.80;;;10.10;82.50;;;;;;4953037;29;20177;-71
2021/09/02 03:34:10;;;;;;;15.15;13.93;;;10.00;82.60;;;;;;4954522;29;20115;-70
2021/09/02 03:36:45;;;;;;;15.05;13.85;;;10.00;82.90;;;;;;4951313;29;20112;-70
2021/09/02 03:39:17;;;;;;;15.55;14.10;;;10.00;82.50;;;;;;4955227;29;20057;-71
2021/09/02 03:41:49;;;;;;;15.15;13.80;;;10.00;82.70;;;;;;4965131;29;20446;-69
2021/09/02 03:44:21;;;;;;;15.57;14.27;;;10.00;83.50;;;;;;4951845;29;20153;-69
2021/09/02 03:46:53;;;;;;;14.52;13.23;;;9.90;83.30;;;;;;4953015;29;20147;-70
2021/09/02 03:49:25;;;;;;;14.68;13.38;;;9.90;83.20;;;;;;4953336;29;20062;-69
2021/09/02 03:51:57;;;;;;;15.13;13.82;;;9.90;83.20;;;;;;4950154;29;20116;-69
2021/09/02 03:54:30;;;;;;;14.75;13.27;;;9.90;82.90;;;;;;4952943;29;20063;-71
2021/09/02 03:57:02;;;;;;;14.23;12.95;;;9.90;82.90;;;;;;4951655;29;20150;-72
2021/09/02 03:59:34;;;;;;;14.25;13.05;;;9.90;82.90;;;;;;4952788;29;20127;-71
2021/09/02 04:02:06;;;;;;;14.20;12.95;;;9.90;82.90;;;;;;4951965;29;20166;-70
2021/09/02 04:04:38;;;;;;;14.18;12.85;;;9.80;83.00;;;;;;4950820;29;20043;-70
2021/09/02 04:07:10;;;;;;;14.20;13.05;;;9.70;83.30;;;;;;4951883;29;20050;-69
2021/09/02 04:09:42;;;;;;;13.38;12.27;;;9.70;83.00;;;;;;4951824;29;20055;-70
2021/09/02 04:12:14;;;;;;;13.88;12.60;;;9.70;82.90;;;;;;4951194;29;20059;-69
2021/09/02 04:14:46;;;;;;;13.68;12.57;;;9.70;82.90;;;;;;4953183;29;20137;-70
2021/09/02 04:17:18;;;;;;;13.80;12.63;;;9.60;82.90;;;;;;4949652;29;20043;-70
2021/09/02 04:19:50;;;;;;;13.73;12.43;;;9.60;83.00;;;;;;4954914;29;21129;-69
2021/09/02 04:22:22;;;;;;;14.02;12.75;;;9.50;84.00;;;;;;4952712;29;20047;-69
2021/09/02 04:24:54;;;;;;;14.85;13.38;;;9.40;84.00;;;;;;4951778;29;20090;-69
2021/09/02 04:27:26;;;;;;;15.75;13.65;;;9.40;84.10;;;;;;4949955;29;20127;-70
2021/09/02 04:29:57;;;;;;;26.83;12.98;;;9.30;85.10;;;;;;4951409;29;20569;-69
2021/09/02 04:32:29;;;;;;;14.70;12.63;;;9.20;85.10;;;;;;4950975;29;20141;-69
2021/09/02 04:35:01;;;;;;;14.85;12.23;;;9.10;85.60;;;;;;4953143;29;20058;-70
2021/09/02 04:37:39;;;;;;;12.55;11.52;;;9.10;84.90;;;;;;4953982;29;20051;-69
2021/09/02 04:40:12;;;;;;;13.15;11.93;;;9.20;84.70;;;;;;4952478;29;20945;-70
2021/09/02 04:42:44;;;;;;;12.10;11.07;;;9.20;84.50;;;;;;4951056;29;20568;-69
2021/09/02 04:45:16;;;;;;;11.85;10.82;;;9.30;84.50;;;;;;4952196;29;20047;-70
2021/09/02 04:47:50;;;;;;;13.32;11.32;;;9.30;84.10;;;;;;4949345;29;20058;-71
2021/09/02 04:50:22;;;;;;;12.00;10.90;;;9.40;83.90;;;;;;4951157;29;20174;-69
2021/09/02 04:52:54;;;;;;;31.65;11.90;;;9.40;83.70;;;;;;4952106;29;20112;-69
2021/09/02 04:55:26;;;;;;;12.27;11.13;;;9.40;83.80;;;;;;4957670;29;20055;-69
2021/09/02 04:57:57;;;;;;;11.82;10.82;;;9.40;83.70;;;;;;4949555;29;20809;-71
2021/09/02 05:00:29;;;;;;;11.50;10.50;;;9.40;83.60;;;;;;4950644;29;20057;-70
2021/09/02 05:03:02;;;;;;;10.88;9.98;;;9.50;83.30;;;;;;4950179;29;20107;-71
2021/09/02 05:05:34;;;;;;;11.63;10.68;;;9.50;83.20;;;;;;4949876;29;20617;-71
2021/09/02 05:08:06;;;;;;;15.32;10.70;;;9.50;83.20;;;;;;4950445;29;20529;-72
2021/09/02 05:10:38;;;;;;;12.50;11.23;;;9.50;83.90;;;;;;4950310;29;20075;-72
2021/09/02 05:13:10;;;;;;;11.13;10.23;;;9.50;83.70;;;;;;4951047;29;20130;-72
2021/09/02 05:15:42;;;;;;;12.30;11.20;;;9.50;83.30;;;;;;4950305;29;20078;-71
2021/09/02 05:18:14;;;;;;;12.55;11.32;;;9.50;83.30;;;;;;4951002;29;20050;-70
2021/09/02 05:20:46;;;;;;;11.73;10.73;;;9.60;83.50;;;;;;4949487;29;20170;-72
2021/09/02 05:23:18;;;;;;;12.13;11.13;;;9.60;83.20;;;;;;4951006;29;20939;-71
2021/09/02 05:25:50;;;;;;;10.98;10.07;;;9.70;83.40;;;;;;4950946;29;20518;-71
2021/09/02 05:28:22;;;;;;;10.80;9.90;;;9.60;83.70;;;;;;4950064;29;20062;-70
2021/09/02 05:30:54;;;;;;;11.50;10.50;;;9.70;83.40;;;;;;4950640;29;20579;-70
2021/09/02 05:33:26;;;;;;;10.65;9.77;;;9.80;83.70;;;;;;4949655;29;20058;-71
2021/09/02 05:35:58;;;;;;;11.15;10.15;;;9.80;83.30;;;;;;4948147;29;20043;-70
2021/09/02 05:38:30;;;;;;;10.93;10.02;;;9.80;83.40;;;;;;4949047;29;20047;-70
2021/09/02 05:41:02;;;;;;;11.00;10.07;;;9.80;83.10;;;;;;4935310;29;20074;-72
2021/09/02 05:43:34;;;;;;;14.80;10.93;;;9.90;83.20;;;;;;4951058;29;20051;-71
2021/09/02 05:46:06;;;;;;;12.00;10.82;;;10.00;83.40;;;;;;4951588;29;20046;-70
2021/09/02 05:48:38;;;;;;;11.85;10.80;;;10.00;83.20;;;;;;4949779;29;20057;-71
2021/09/02 05:51:10;;;;;;;10.95;10.07;;;10.10;83.10;;;;;;4949694;29;20099;-70
2021/09/02 05:53:41;;;;;;;11.10;10.20;;;10.20;82.90;;;;;;4951094;29;20062;-71
2021/09/02 05:56:13;;;;;;;11.70;10.70;;;10.30;84.30;;;;;;4950469;29;20057;-71
2021/09/02 05:58:45;;;;;;;11.40;10.40;;;10.50;83.10;;;;;;4951143;29;20064;-72
2021/09/02 06:01:17;;;;;;;11.35;10.45;;;10.50;83.00;;;;;;4948520;29;20043;-72
2021/09/02 06:03:50;;;;;;;11.30;10.40;;;10.70;83.00;;;;;;4947595;29;20046;-70
2021/09/02 06:06:22;;;;;;;11.73;10.73;;;10.80;82.60;;;;;;4946496;29;20074;-70
2021/09/02 06:08:54;;;;;;;11.90;11.00;;;11.00;82.40;;;;;;4951176;29;20102;-71
2021/09/02 06:11:25;;;;;;;11.57;10.68;;;11.10;82.80;;;;;;4950360;29;20051;-71
2021/09/02 06:13:57;;;;;;;12.05;10.95;;;11.20;81.60;;;;;;4952804;29;20063;-72
2021/09/02 06:16:29;;;;;;;12.35;11.35;;;11.30;81.60;;;;;;4952843;29;20991;-71
2021/09/02 06:19:02;;;;;;;12.25;11.25;;;11.40;81.10;;;;;;4953315;29;20500;-71
2021/09/02 06:21:34;;;;;;;12.38;11.38;;;11.60;80.90;;;;;;4950419;29;20151;-70
2021/09/02 06:24:06;;;;;;;13.10;12.10;;;11.60;80.80;;;;;;4954725;29;20061;-70
2021/09/02 06:26:37;;;;;;;12.50;11.50;;;11.60;80.50;;;;;;4952559;29;20066;-70
2021/09/02 06:29:09;;;;;;;12.50;11.50;;;11.50;81.40;;;;;;4952229;29;20088;-70
2021/09/02 06:31:41;;;;;;;13.30;12.15;;;11.60;81.20;;;;;;4955579;29;20146;-70
2021/09/02 06:34:13;;;;;;;12.80;11.80;;;11.60;81.30;;;;;;4954243;29;20138;-70
2021/09/02 06:36:45;;;;;;;12.63;11.45;;;11.80;81.20;;;;;;4952398;29;20050;-71
2021/09/02 06:39:18;;;;;;;12.40;11.40;;;12.00;81.10;;;;;;4954062;29;20402;-70
2021/09/02 06:41:50;;;;;;;13.23;12.23;;;12.10;81.20;;;;;;4954316;29;20047;-71
2021/09/02 06:44:22;;;;;;;13.38;12.38;;;12.30;81.00;;;;;;4954465;29;20201;-70
2021/09/02 06:46:54;;;;;;;12.40;11.40;;;12.50;80.70;;;;;;4953468;29;20504;-70
2021/09/02 06:49:26;;;;;;;12.77;11.77;;;12.60;80.30;;;;;;4951765;29;20751;-70
2021/09/02 06:51:57;;;;;;;13.15;12.02;;;12.70;80.50;;;;;;4951305;29;20086;-71
2021/09/02 06:54:29;;;;;;;13.65;12.43;;;12.90;80.70;;;;;;4962066;29;20078;-71
2021/09/02 06:57:01;;;;;;;13.15;12.05;;;13.10;80.20;;;;;;4952611;29;20126;-72
2021/09/02 06:59:33;;;;;;;13.50;12.50;;;13.20;80.20;;;;;;4954526;29;20130;-71
2021/09/02 07:02:05;;;;;;;15.07;13.88;;;13.40;80.40;;;;;;4954068;29;20079;-71
2021/09/02 07:04:38;;;;;;;14.93;13.50;;;13.50;79.60;;;;;;4955234;29;20059;-71
2021/09/02 07:07:10;;;;;;;14.32;13.13;;;13.60;79.00;;;;;;4954745;29;20051;-72
2021/09/02 07:09:41;;;;;;;15.55;14.35;;;13.70;79.00;;;;;;4954271;29;20119;-71
2021/09/02 07:12:13;;;;;;;15.20;13.95;;;13.80;79.40;;;;;;4950201;29;20047;-72
2021/09/02 07:14:45;;;;;;;15.10;14.00;;;13.90;80.00;;;;;;4954374;29;20067;-72
2021/09/02 07:17:17;;;;;;;15.65;14.30;;;14.10;79.90;;;;;;4952258;29;20497;-72
2021/09/02 07:19:49;;;;;;;15.82;14.52;;;14.20;79.70;;;;;;4953028;29;20130;-71
2021/09/02 07:22:21;;;;;;;15.55;14.27;;;14.30;79.40;;;;;;4950724;29;20051;-73
2021/09/02 07:24:53;;;;;;;16.15;14.85;;;14.50;79.20;;;;;;4954734;29;20065;-71
2021/09/02 07:27:25;;;;;;;15.57;14.38;;;14.60;78.70;;;;;;4954115;29;20161;-71
2021/09/02 07:29:57;;;;;;;16.40;15.10;;;14.60;79.20;;;;;;4953092;29;20078;-71
2021/09/02 07:32:30;;;;;;;15.45;14.32;;;14.70;78.30;;;;;;4954038;29;20059;-71
2021/09/02 07:35:03;;;;;;;15.75;14.45;;;14.80;78.40;;;;;;4953159;29;20823;-73
2021/09/02 07:37:35;;;;;;;16.10;14.90;;;14.90;78.00;;;;;;4953588;29;20109;-71
2021/09/02 07:40:09;;;;;;;17.13;15.82;;;15.00;77.40;;;;;;4954449;29;20141;-71
2021/09/02 07:42:44;;;;;;;15.48;14.07;;;15.10;77.80;;;;;;4940323;29;20535;-71
2021/09/02 07:45:16;;;;;;;15.55;14.25;;;15.20;78.00;;;;;;4952628;29;20070;-71
2021/09/02 07:47:48;;;;;;;15.73;14.50;;;15.30;77.30;;;;;;4952115;29;20448;-71
2021/09/02 07:50:20;;;;;;;15.77;14.57;;;15.40;77.60;;;;;;4940390;29;20058;-71
2021/09/02 07:52:52;;;;;;;17.08;15.45;;;15.50;77.40;;;;;;4952582;29;20699;-71
2021/09/02 07:55:25;;;;;;;16.10;14.90;;;15.60;76.40;;;;;;4954186;29;20598;-71
2021/09/02 07:58:00;;;;;;;16.95;15.63;;;15.60;75.50;;;;;;4967722;29;20059;-71
2021/09/02 08:00:32;;;;;;;16.35;14.95;;;15.70;76.30;;;;;;4955919;29;20063;-72
2021/09/02 08:03:05;;;;;;;16.00;14.75;;;15.70;76.70;;;;;;4953116;29;20054;-71
2021/09/02 08:05:37;;;;;;;16.30;14.93;;;15.80;75.50;;;;;;4953442;29;20047;-70
2021/09/02 08:08:09;;;;;;;15.95;14.50;;;15.90;76.60;;;;;;4952272;29;20063;-71
2021/09/02 08:10:41;;;;;;;16.23;14.93;;;16.00;76.40;;;;;;4939344;29;20129;-71
2021/09/02 08:13:13;;;;;;;15.68;14.48;;;16.10;77.50;;;;;;4949373;29;20051;-70
2021/09/02 08:15:45;;;;;;;16.63;15.23;;;16.20;76.60;;;;;;4952180;29;20054;-71
2021/09/02 08:18:17;;;;;;;16.08;14.77;;;16.30;75.90;;;;;;4948596;29;20920;-70
2021/09/02 08:20:49;;;;;;;16.05;14.85;;;16.40;75.20;;;;;;4952311;29;20047;-71
2021/09/02 08:23:21;;;;;;;16.38;15.07;;;16.50;76.90;;;;;;4951516;29;20050;-72
2021/09/02 08:25:54;;;;;;;16.63;15.32;;;16.60;76.60;;;;;;4950897;29;20069;-71
2021/09/02 08:28:25;;;;;;;17.35;15.95;;;16.70;76.50;;;;;;4952577;29;20057;-71
2021/09/02 08:30:57;;;;;;;16.90;15.60;;;16.80;76.00;;;;;;4947161;29;20182;-71
2021/09/02 08:33:29;;;;;;;16.10;14.90;;;16.90;76.00;;;;;;4944504;29;20054;-71
2021/09/02 08:36:01;;;;;;;17.38;15.98;;;17.00;74.90;;;;;;4950932;29;20658;-71
2021/09/02 08:38:36;;;;;;;17.35;16.05;;;17.00;75.60;;;;;;4949930;29;20092;-70
2021/09/02 08:41:08;;;;;;;17.42;16.13;;;17.10;75.90;;;;;;4951097;29;20074;-71
2021/09/02 08:43:42;;;;;;;17.95;16.55;;;17.30;75.40;;;;;;4951388;29;20901;-71
2021/09/02 08:46:34;;;;;;;18.30;16.80;;;17.30;75.70;;;;;;4951909;29;20047;-70
2021/09/02 08:49:06;;;;;;;17.27;15.95;;;17.40;75.50;;;;;;4953308;29;20744;-71
2021/09/02 08:51:38;;;;;;;16.73;15.43;;;17.50;73.10;;;;;;4951123;29;20054;-71
2021/09/02 08:54:10;;;;;;;17.08;15.68;;;17.50;73.20;;;;;;4951087;29;20169;-70
2021/09/02 08:56:42;;;;;;;17.10;15.80;;;17.60;72.80;;;;;;4951828;29;20142;-71
2021/09/02 08:59:14;;;;;;;18.20;16.80;;;17.70;74.00;;;;;;4948126;29;20055;-70
2021/09/02 09:01:50;;;;;;;19.13;16.55;;;17.80;72.90;;;;;;4950671;29;20134;-71
2021/09/02 09:04:32;;;;;;;17.42;15.82;;;17.90;73.60;;;;;;4950082;29;20476;-71
2021/09/02 09:07:04;;;;;;;17.80;16.40;;;17.90;72.60;;;;;;4953219;29;20130;-70
2021/09/02 09:09:36;;;;;;;17.88;16.58;;;18.00;74.00;;;;;;4952699;29;20055;-70
2021/09/02 09:12:08;;;;;;;16.55;15.25;;;18.10;73.20;;;;;;4953576;29;20055;-70
2021/09/02 09:14:54;;;;;;;17.77;16.38;;;18.20;72.90;;;;;;4951515;29;20051;-71
2021/09/02 09:17:26;;;;;;;17.40;16.00;;;18.30;74.10;;;;;;4950855;29;20075;-71
2021/09/02 09:19:59;;;;;;;17.75;16.35;;;18.40;72.10;;;;;;4952351;29;20452;-71
2021/09/02 09:22:31;;;;;;;17.63;16.33;;;18.40;73.30;;;;;;4950436;29;20051;-71
2021/09/02 09:25:06;;;;;;;17.27;15.98;;;18.50;73.20;;;;;;4949576;29;20047;-73
2021/09/02 09:27:48;;;;;;;17.38;16.08;;;18.70;73.30;;;;;;4950667;29;20051;-72
2021/09/02 09:30:22;;;;;;;18.55;17.05;;;18.70;71.40;;;;;;4951029;29;20936;-71
2021/09/02 09:33:01;;;;;;;18.75;17.35;;;18.80;73.60;;;;;;4950487;29;20126;-72
2021/09/02 09:35:34;;;;;;;18.80;17.25;;;18.90;71.20;;;;;;4947815;29;20550;-70
2021/09/02 09:38:18;;;;;;;18.25;16.85;;;19.00;71.10;;;;;;4957853;29;20077;-71
2021/09/02 09:40:52;;;;;;;18.20;16.80;;;19.00;70.40;;;;;;4951653;29;20157;-70
2021/09/02 09:43:25;;;;;;;19.25;17.75;;;19.10;70.00;;;;;;4950468;29;20461;-70
2021/09/02 09:45:57;;;;;;;18.02;16.73;;;19.20;71.40;;;;;;4950614;29;20079;-70
2021/09/02 09:48:36;;;;;;;17.73;16.42;;;19.30;70.00;;;;;;4964605;29;20084;-70
2021/09/02 09:51:11;;;;;;;17.65;16.35;;;19.30;71.10;;;;;;4952775;29;20139;-70
2021/09/02 09:53:48;;;;;;;18.33;17.02;;;19.30;69.80;;;;;;4954089;29;20121;-70
2021/09/02 09:56:23;;;;;;;18.00;16.70;;;19.40;70.80;;;;;;4952817;29;20078;-72
2021/09/02 09:58:55;;;;;;;18.13;16.83;;;19.50;71.00;;;;;;4953893;29;20059;-71
2021/09/02 10:01:28;;;;;;;18.40;17.02;;;19.60;69.80;;;;;;4954256;29;20793;-71
2021/09/02 10:04:00;;;;;;;17.08;15.68;;;19.70;70.80;;;;;;4955305;29;20112;-71
2021/09/02 10:06:33;;;;;;;18.50;17.10;;;19.70;70.10;;;;;;4953797;29;20693;-71
2021/09/02 10:09:06;;;;;;;18.70;17.33;;;19.70;70.00;;;;;;4955592;29;20050;-70
2021/09/02 10:11:38;;;;;;;18.67;17.05;;;19.80;70.30;;;;;;4950964;29;20098;-71
2021/09/02 10:14:10;;;;;;;19.10;17.35;;;19.90;70.20;;;;;;4953246;29;20088;-70
2021/09/02 10:16:42;;;;;;;18.00;16.70;;;19.90;69.10;;;;;;4957174;29;20142;-71
2021/09/02 10:19:14;;;;;;;18.27;16.90;;;19.90;69.60;;;;;;4955203;29;20054;-72
2021/09/02 10:21:48;;;;;;;18.75;17.23;;;19.90;70.40;;;;;;4952573;29;20051;-71
2021/09/02 10:24:36;;;;;;;19.20;17.70;;;20.00;70.20;;;;;;4955217;29;20879;-71
2021/09/02 10:27:17;;;;;;;18.38;17.05;;;20.10;70.70;;;;;;4952302;29;20739;-72
2021/09/02 10:29:51;;;;;;;19.20;17.70;;;20.10;70.20;;;;;;4954823;29;20054;-71
2021/09/02 10:32:23;;;;;;;19.15;17.67;;;20.20;71.60;;;;;;4954159;29;20128;-71
2021/09/02 10:35:09;;;;;;;18.70;17.40;;;20.40;70.50;;;;;;4956816;29;20257;-70
2021/09/02 10:37:42;;;;;;;18.95;17.55;;;20.40;71.40;;;;;;4952706;29;20087;-71
2021/09/02 10:40:17;;;;;;;18.80;17.38;;;20.50;69.50;;;;;;4952954;29;20263;-71
2021/09/02 10:42:52;;;;;;;19.38;17.88;;;20.40;69.40;;;;;;4953533;29;20050;-72
2021/09/02 10:45:30;;;;;;;19.73;18.33;;;20.40;70.00;;;;;;4952377;29;20047;-71
2021/09/02 10:48:07;;;;;;;19.60;18.00;;;20.50;71.30;;;;;;4956724;29;20058;-72
2021/09/02 10:50:42;;;;;;;19.45;18.02;;;20.60;71.20;;;;;;4959901;29;20106;-71
2021/09/02 10:53:16;;;;;;;19.45;17.95;;;20.70;70.50;;;;;;4955621;29;20090;-71
2021/09/02 10:55:51;;;;;;;19.05;17.65;;;20.70;70.00;;;;;;4951419;29;20081;-72
2021/09/02 10:58:40;;;;;;;19.08;17.67;;;20.70;68.80;;;;;;4956044;29;20096;-72
2021/09/02 11:01:28;;;;;;;20.35;18.85;;;20.80;70.50;;;;;;4951255;29;20050;-72
2021/09/02 11:04:03;;;;;;;20.08;18.67;;;20.90;70.50;;;;;;4952639;29;20804;-73
2021/09/02 11:06:49;;;;;;;20.63;19.13;;;21.00;69.30;;;;;;4952180;29;20047;-72
2021/09/02 11:09:35;;;;;;;19.90;18.48;;;21.10;69.10;;;;;;4954974;29;20070;-72
2021/09/02 11:12:13;;;;;;;19.98;18.48;;;21.10;69.40;;;;;;4954213;29;20187;-73
2021/09/02 11:14:47;;;;;;;20.33;18.90;;;21.20;68.40;;;;;;4959731;29;20536;-73
2021/09/02 11:17:19;;;;;;;20.23;18.80;;;21.30;69.10;;;;;;4953427;29;20051;-73
2021/09/02 11:19:53;;;;;;;20.13;18.60;;;21.40;67.90;;;;;;4953208;29;20063;-72
2021/09/02 11:22:25;;;;;;;20.48;18.98;;;21.50;68.50;;;;;;4950833;29;20682;-72
2021/09/02 11:24:57;;;;;;;19.33;17.92;;;21.60;69.80;;;;;;4950854;29;20069;-73
2021/09/02 11:27:33;;;;;;;19.85;18.45;;;21.70;68.20;;;;;;4949167;29;20042;-71
2021/09/02 11:30:19;;;;;;;20.42;19.00;;;21.70;68.20;;;;;;4929194;29;20534;-73
2021/09/02 11:33:00;;;;;;;20.38;18.88;;;21.70;66.40;;;;;;4948152;29;20934;-72
2021/09/02 11:35:32;;;;;;;19.58;18.17;;;21.80;66.20;;;;;;4951965;29;20056;-72
2021/09/02 11:38:05;;;;;;;20.30;18.83;;;21.80;66.10;;;;;;4950892;29;20055;-72
2021/09/02 11:40:38;;;;;;;20.25;18.85;;;21.80;66.90;;;;;;4950038;29;20055;-72
2021/09/02 11:43:17;;;;;;;19.75;18.35;;;21.90;66.90;;;;;;4950283;29;20138;-71
2021/09/02 11:45:52;;;;;;;20.30;18.73;;;22.00;64.80;;;;;;4949137;29;20063;-72
2021/09/02 11:48:24;;;;;;;19.45;18.05;;;22.10;65.20;;;;;;4948686;29;20817;-71
2021/09/02 11:50:58;;;;;;;19.70;18.30;;;22.10;64.40;;;;;;4949629;29;20158;-70
2021/09/02 11:53:31;;;;;;;19.35;17.95;;;22.00;64.40;;;;;;4949391;29;20113;-72
2021/09/02 11:56:13;;;;;;;19.80;18.30;;;22.10;63.40;;;;;;4945577;29;20120;-73
2021/09/02 11:58:46;;;;;;;19.92;18.52;;;22.20;64.70;;;;;;4952498;29;20051;-73
2021/09/02 12:01:18;;;;;;;19.52;18.13;;;22.30;63.40;;;;;;4952250;29;20141;-72
2021/09/02 12:03:51;;;;;;;19.00;17.70;;;22.40;64.30;;;;;;4952497;29;20070;-71
2021/09/02 12:06:29;;;;;;;19.70;18.10;;;22.40;64.80;;;;;;4953472;29;20104;-71
2021/09/02 12:09:02;;;;;;;19.80;18.35;;;22.50;63.70;;;;;;4952732;29;20565;-72
2021/09/02 12:11:34;;;;;;;20.23;18.55;;;22.40;63.30;;;;;;4949111;29;20078;-71
2021/09/02 12:14:34;;;;;;;19.50;18.10;;;22.60;63.20;;;;;;4951353;29;20133;-72
2021/09/02 12:17:09;;;;;;;19.38;17.98;;;22.60;63.40;;;;;;4952288;29;20522;-72
2021/09/02 12:19:53;;;;;;;19.33;17.83;;;22.50;62.50;;;;;;4953641;29;20515;-71
2021/09/02 12:22:37;;;;;;;19.98;18.50;;;22.60;62.70;;;;;;4951993;29;20137;-71
2021/09/02 12:25:14;;;;;;;19.10;17.80;;;22.60;64.40;;;;;;4954177;29;20047;-72
2021/09/02 12:27:48;;;;;;;19.20;17.90;;;22.70;62.90;;;;;;4950189;29;20062;-73
2021/09/02 12:30:43;;;;;;;19.13;17.63;;;22.70;62.50;;;;;;4950435;29;20054;-71
2021/09/02 12:33:17;;;;;;;19.25;17.88;;;22.80;62.70;;;;;;4950108;29;20047;-72
2021/09/02 12:35:49;;;;;;;18.90;17.60;;;22.90;63.00;;;;;;4948589;29;20199;-72
2021/09/02 12:38:37;;;;;;;19.63;18.23;;;22.90;61.70;;;;;;4953101;29;20159;-73
2021/09/02 12:41:15;;;;;;;19.33;17.85;;;22.80;61.90;;;;;;4951626;29;20169;-70
2021/09/02 12:44:03;;;;;;;19.75;18.35;;;22.80;61.60;;;;;;4952719;29;20051;-72
2021/09/02 12:46:53;;;;;;;19.98;18.58;;;22.90;63.00;;;;;;4953584;29;20078;-72
2021/09/02 12:49:45;;;;;;;;;;;22.90;62.60;;;;;;4951941;29;20047;-73
2021/09/02 12:52:32;;;;;;;19.20;17.80;;;22.90;62.40;;;;;;4950284;29;19933;-73
2021/09/02 12:55:34;;;;;;;19.80;18.30;;;23.00;60.70;;;;;;4936854;29;20073;-71
2021/09/02 12:58:10;;;;;;;19.35;17.95;;;22.90;61.00;;;;;;4949461;29;20070;-72
2021/09/02 13:00:42;;;;;;;20.13;18.42;;;22.90;61.70;;;;;;4950782;29;20297;-71